Time;durP1;ratioP1;P1;durP2;ratioP2;P2;SDS_P1;SDS_P2;PMS_P1;PMS_P2;Temp;Humidity;BMP_temperature;BMP_pressure;BME280_temperature;BME280_humidity;BME280_pressure;Samples;Min_cycle;Max_cycle;Signal;HPM_P1;HPM_P2
2021/08/24 00:01:44;;;;;;;3.60;3.30;;;;;;;18.27;70.63;99455.28;4882060;29;20310;-89
2021/08/24 00:04:11;;;;;;;3.63;3.30;;;;;;;18.24;70.11;99448.53;4897970;29;20243;-88
2021/08/24 00:06:38;;;;;;;3.17;2.73;;;;;;;18.31;70.34;99457.19;4882658;29;20322;-89
2021/08/24 00:09:05;;;;;;;3.13;2.93;;;;;;;18.38;69.25;99457.69;4851960;29;20544;-89
2021/08/24 00:11:33;;;;;;;3.13;2.83;;;;;;;18.46;68.89;99459.88;4882591;29;20227;-89
2021/08/24 00:14:02;;;;;;;3.20;2.90;;;;;;;18.39;69.18;99451.19;4882537;29;20235;-88
2021/08/24 00:16:30;;;;;;;2.80;2.60;;;;;;;18.44;68.95;99453.06;4882391;29;20291;-89
2021/08/24 00:18:57;;;;;;;2.90;2.70;;;;;;;18.45;68.97;99450.09;4882313;29;20243;-89
2021/08/24 00:21:24;;;;;;;2.87;2.67;;;;;;;18.44;69.31;99455.78;4897826;29;20644;-89
2021/08/24 00:23:51;;;;;;;2.90;2.60;;;;;;;18.48;69.22;99449.53;4898081;29;20239;-89
2021/08/24 00:26:18;;;;;;;2.80;2.60;;;;;;;18.52;69.14;99457.16;4881819;29;20253;-89
2021/08/24 00:28:45;;;;;;;2.50;2.30;;;;;;;18.51;69.34;99450.91;4882563;29;20704;-88
2021/08/24 00:31:12;;;;;;;2.53;2.33;;;;;;;18.45;69.37;99438.44;4866737;29;20227;-88
2021/08/24 00:33:38;;;;;;;2.87;2.67;;;;;;;18.54;69.17;99444.13;4851563;29;20322;-89
2021/08/24 00:36:05;;;;;;;2.97;2.70;;;;;;;18.53;69.31;99442.47;4881605;29;20322;-90
2021/08/24 00:38:32;;;;;;;2.57;2.37;;;;;;;18.58;68.98;99451.44;4882480;29;20235;-89
2021/08/24 00:41:01;;;;;;;2.53;2.33;;;;;;;18.60;69.11;99451.19;4866694;29;20660;-89
2021/08/24 00:43:32;;;;;;;3.00;2.70;;;;;;;18.63;69.37;99458.75;4866468;29;20756;-89
2021/08/24 00:46:19;;;;;;;2.60;2.40;;;;;;;18.62;69.51;99452.50;4866704;29;20235;-89
2021/08/24 00:48:47;;;;;;;2.87;2.50;;;;;;;18.45;70.11;99441.16;4881908;29;20295;-89
2021/08/24 00:51:17;;;;;;;2.60;2.40;;;;;;;18.60;69.60;99453.88;4881747;29;20280;-90
2021/08/24 00:53:44;;;;;;;2.63;2.43;;;;;;;18.46;70.02;99445.50;4851430;29;20586;-88
2021/08/24 00:56:11;;;;;;;3.87;2.47;;;;;;;18.54;69.83;99453.09;4866141;29;20556;-89
2021/08/24 00:58:39;;;;;;;2.57;2.37;;;;;;;18.56;69.80;99455.53;4881869;29;20652;-88
2021/08/24 01:01:07;;;;;;;2.83;2.63;;;;;;;18.54;70.24;99454.97;4866552;29;20235;-89
2021/08/24 01:03:37;;;;;;;2.63;2.43;;;;;;;18.48;69.86;99443.28;4866343;29;20236;-89
2021/08/24 01:06:34;;;;;;;2.43;2.23;;;;;;;18.44;69.82;99442.22;4881083;29;20243;-89
2021/08/24 01:09:06;;;;;;;4.33;2.30;;;;;;;18.53;69.95;99453.31;4847080;29;20311;-89
2021/08/24 01:11:50;;;;;;;2.30;2.10;;;;;;;18.42;69.96;99449.84;4877798;29;20236;-89
2021/08/24 01:14:19;;;;;;;3.27;2.20;;;;;;;18.44;69.78;99461.22;4877254;29;20620;-89
2021/08/24 01:16:59;;;;;;;3.27;2.60;;;;;;;18.41;69.64;99448.22;4863027;29;20260;-90
2021/08/24 01:19:34;;;;;;;2.50;2.30;;;;;;;18.52;70.25;99463.38;4878528;29;20227;-89
2021/08/24 01:22:19;;;;;;;2.37;2.27;;;;;;;18.46;70.68;99464.47;4862188;29;20585;-89
2021/08/24 01:25:04;;;;;;;2.70;2.50;;;;;;;18.41;70.56;99470.72;4863754;29;20232;-89
2021/08/24 01:27:36;;;;;;;2.90;2.70;;;;;;;18.30;70.57;99454.72;4849112;29;20720;-90
2021/08/24 01:30:28;;;;;;;3.10;2.60;;;;;;;18.33;71.04;99465.06;4865186;29;20236;-89
2021/08/24 01:33:11;;;;;;;2.70;2.50;;;;;;;18.31;71.40;99456.38;4865500;29;20232;-88
2021/08/24 01:35:56;;;;;;;2.90;2.70;;;;;;;18.27;71.75;99463.44;4850227;29;20251;-89
2021/08/24 01:38:25;;;;;;;2.90;2.70;;;;;;;18.21;72.04;99469.94;4880894;29;20236;-90
2021/08/24 01:41:00;;;;;;;2.70;2.50;;;;;;;18.24;72.16;99469.41;4865673;29;20236;-89
2021/08/24 01:44:04;;;;;;;2.87;2.53;;;;;;;18.21;72.16;99465.31;4881015;29;20297;-89
2021/08/24 01:46:40;;;;;;;2.70;2.50;;;;;;;18.28;72.71;99467.78;4896202;29;20231;-90
2021/08/24 01:49:07;;;;;;;2.80;2.60;;;;;;;18.26;73.08;99468.03;4865606;29;20258;-89
2021/08/24 01:51:39;;;;;;;2.40;2.30;;;;;;;18.30;73.19;99471.00;4880829;29;20651;-89
2021/08/24 01:54:13;;;;;;;2.93;2.73;;;;;;;18.30;73.14;99465.56;4880672;29;20287;-90
2021/08/24 01:56:40;;;;;;;3.20;2.50;;;;;;;18.26;73.43;99454.47;4865702;29;20810;-88
2021/08/24 01:59:17;;;;;;;2.23;2.13;;;;;;;18.28;73.21;99468.59;4865184;29;20446;-91
2021/08/24 02:01:50;;;;;;;2.43;2.27;;;;;;;18.35;73.42;99473.72;4865530;29;20568;-90
2021/08/24 02:04:39;;;;;;;2.67;2.47;;;;;;;18.34;73.62;99469.38;4864846;29;20643;-91
2021/08/24 02:07:09;;;;;;;2.53;2.00;;;;;;;18.37;72.35;99464.22;4865451;29;20247;-90
2021/08/24 02:09:40;;;;;;;1.83;1.70;;;;;;;18.26;73.00;99462.59;4865266;29;20291;-91
2021/08/24 02:12:09;;;;;;;1.90;1.80;;;;;;;18.24;72.90;99472.94;4849881;29;20396;-89
2021/08/24 02:14:38;;;;;;;1.60;1.50;;;;;;;18.33;72.88;99470.47;4865225;29;20275;-89
2021/08/24 02:17:07;;;;;;;1.70;1.60;;;;;;;18.36;72.23;99461.78;4865214;29;20239;-90
2021/08/24 02:19:48;;;;;;;1.50;1.40;;;;;;;18.39;72.47;99472.88;4880557;29;20242;-89
2021/08/24 02:22:37;;;;;;;1.73;1.63;;;;;;;18.38;72.56;99471.25;4865063;29;20246;-89
2021/08/24 02:25:26;;;;;;;1.43;1.33;;;;;;;18.38;71.77;99463.13;4864551;29;20666;-90
2021/08/24 02:27:57;;;;;;;1.57;1.30;;;;;;;18.39;72.21;99472.06;4849986;29;20246;-90
2021/08/24 02:30:25;;;;;;;1.60;1.50;;;;;;;18.39;72.41;99472.06;4880353;29;20235;-88
2021/08/24 02:32:52;;;;;;;1.40;1.30;;;;;;;18.35;72.24;99468.28;4865006;29;20235;-89
2021/08/24 02:35:31;;;;;;;1.53;1.20;;;;;;;18.47;72.08;99468.81;4880394;29;20251;-90
2021/08/24 02:38:19;;;;;;;2.13;1.40;;;;;;;18.48;72.24;99473.13;4880707;29;20235;-90
2021/08/24 02:40:58;;;;;;;1.67;1.57;;;;;;;18.47;72.57;99468.81;4881124;29;20243;-90
2021/08/24 02:43:32;;;;;;;1.53;1.43;;;;;;;18.45;72.44;99465.56;4895890;29;20299;-90
2021/08/24 02:46:03;;;;;;;2.30;1.57;;;;;;;18.45;71.98;99463.66;4880506;29;20235;-90
2021/08/24 02:48:32;;;;;;;1.60;1.40;;;;;;;18.44;71.81;99463.94;4895303;29;20582;-90
2021/08/24 02:50:59;;;;;;;1.83;1.50;;;;;;;18.43;72.17;99459.59;4849330;29;20262;-88
2021/08/24 02:53:26;;;;;;;1.70;1.60;;;;;;;18.37;72.08;99464.22;4880226;29;20228;-89
2021/08/24 02:55:53;;;;;;;1.70;1.60;;;;;;;18.35;72.35;99452.81;4849703;29;20295;-89
2021/08/24 02:58:20;;;;;;;1.93;1.83;;;;;;;18.38;72.58;99460.41;4879872;29;20243;-90
2021/08/24 03:00:47;;;;;;;1.60;1.50;;;;;;;18.39;72.20;99459.31;4880038;29;20228;-89
2021/08/24 03:03:15;;;;;;;1.87;1.77;;;;;;;18.41;72.08;99461.78;4865031;29;20239;-88
2021/08/24 03:05:43;;;;;;;2.00;1.90;;;;;;;18.42;72.45;99471.53;4849319;29;20319;-86
2021/08/24 03:08:10;;;;;;;1.90;1.80;;;;;;;18.38;72.49;99463.13;4864143;29;20236;-88
2021/08/24 03:10:40;;;;;;;2.03;1.87;;;;;;;18.48;72.71;99470.41;4864946;29;20258;-87
2021/08/24 03:13:12;;;;;;;1.70;1.60;;;;;;;18.55;72.48;99484.56;4864750;29;20235;-87
2021/08/24 03:15:46;;;;;;;2.00;1.90;;;;;;;18.50;71.83;99476.41;4880988;29;20268;-87
2021/08/24 03:18:23;;;;;;;2.03;1.93;;;;;;;18.47;71.97;99466.09;4864192;29;20257;-87
2021/08/24 03:20:54;;;;;;;1.93;1.83;;;;;;;18.52;72.16;99465.28;4864521;29;20242;-87
2021/08/24 03:23:23;;;;;;;1.77;1.67;;;;;;;18.50;71.87;99468.25;4879949;29;20768;-87
2021/08/24 03:25:52;;;;;;;1.77;1.67;;;;;;;18.51;72.23;99475.31;4849442;29;20231;-87
2021/08/24 03:28:21;;;;;;;1.80;1.70;;;;;;;18.55;72.34;99476.41;4848596;29;20640;-87
2021/08/24 03:30:49;;;;;;;2.10;1.90;;;;;;;18.54;71.82;99474.78;4864499;29;20235;-87
2021/08/24 03:33:16;;;;;;;1.73;1.63;;;;;;;18.58;72.09;99483.19;4879843;29;20236;-87
2021/08/24 03:35:45;;;;;;;2.03;1.87;;;;;;;18.54;71.76;99485.63;4880058;29;20671;-88
2021/08/24 03:38:12;;;;;;;2.07;1.83;;;;;;;18.53;71.98;99480.44;4882730;29;20291;-87
2021/08/24 03:40:39;;;;;;;2.10;1.80;;;;;;;18.59;72.03;99496.47;4867595;29;20359;-87
2021/08/24 03:43:07;;;;;;;2.07;1.97;;;;;;;18.60;72.26;99487.25;4882990;29;20292;-87
2021/08/24 03:45:33;;;;;;;1.90;1.80;;;;;;;18.49;72.39;99481.00;4883251;29;20654;-87
2021/08/24 03:48:00;;;;;;;2.10;2.00;;;;;;;18.61;72.08;99507.06;4882544;29;20319;-86
2021/08/24 03:50:27;;;;;;;2.20;2.10;;;;;;;18.63;71.67;99505.69;4883090;29;20307;-87
2021/08/24 03:52:54;;;;;;;2.70;2.10;;;;;;;18.61;71.04;99496.22;4867312;29;20266;-87
2021/08/24 03:55:21;;;;;;;2.17;1.97;;;;;;;18.68;70.47;99508.41;4882900;29;20331;-87
2021/08/24 03:57:51;;;;;;;2.40;2.20;;;;;;;18.59;70.97;99501.91;4867606;29;20659;-88
2021/08/24 04:00:19;;;;;;;2.00;1.77;;;;;;;18.61;70.92;99496.22;4866624;29;20242;-86
2021/08/24 04:02:46;;;;;;;2.50;2.10;;;;;;;18.59;70.52;99503.81;4882908;29;20272;-87
2021/08/24 04:05:13;;;;;;;3.00;1.90;;;;;;;18.59;70.08;99520.09;4882810;29;20243;-86
2021/08/24 04:07:40;;;;;;;2.20;2.00;;;;;;;18.58;70.63;99515.75;4882940;29;20228;-87
2021/08/24 04:10:07;;;;;;;2.30;2.10;;;;;;;18.56;70.22;99512.50;4867232;29;20236;-87
2021/08/24 04:12:35;;;;;;;1.97;1.87;;;;;;;18.60;70.09;99525.25;4851768;29;20228;-87
2021/08/24 04:15:05;;;;;;;2.00;1.90;;;;;;;18.51;70.26;99523.34;4882732;29;20263;-88
2021/08/24 04:17:39;;;;;;;2.10;1.90;;;;;;;18.50;70.15;99527.94;4867888;29;20227;-87
2021/08/24 04:20:09;;;;;;;1.80;1.70;;;;;;;18.58;69.43;99524.69;4881834;29;20239;-87
2021/08/24 04:22:39;;;;;;;2.07;1.97;;;;;;;18.49;69.01;99529.03;4851743;29;20256;-87
2021/08/24 04:25:07;;;;;;;2.13;1.93;;;;;;;18.53;69.17;99529.28;4867085;29;20259;-87
2021/08/24 04:27:34;;;;;;;1.70;1.60;;;;;;;18.46;69.03;99527.69;4867108;29;20315;-87
2021/08/24 04:30:01;;;;;;;2.20;2.03;;;;;;;18.49;69.15;99534.44;4866827;29;20526;-86
2021/08/24 04:32:29;;;;;;;2.00;1.77;;;;;;;18.06;69.20;99518.75;4882315;29;20231;-87
2021/08/24 04:34:55;;;;;;;2.10;2.00;;;;;;;18.19;68.81;99538.00;4882450;29;20240;-88
2021/08/24 04:37:23;;;;;;;2.00;1.70;;;;;;;18.29;68.32;99543.41;4881868;29;20707;-85
2021/08/24 04:39:49;;;;;;;2.07;1.97;;;;;;;18.22;68.61;99542.06;4882113;29;20291;-84
2021/08/24 04:42:16;;;;;;;2.27;2.07;;;;;;;18.17;68.68;99537.47;4882732;29;20672;-85
2021/08/24 04:44:43;;;;;;;2.10;1.87;;;;;;;18.09;68.49;99551.56;4851497;29;20587;-89
2021/08/24 04:47:10;;;;;;;2.10;1.90;;;;;;;18.13;68.74;99549.13;4881992;29;20263;-88
2021/08/24 04:49:37;;;;;;;2.50;2.30;;;;;;;17.99;68.97;99530.69;4866703;29;20239;-88
2021/08/24 04:52:04;;;;;;;2.40;2.20;;;;;;;17.93;68.74;99533.66;4881782;29;20228;-87
2021/08/24 04:54:33;;;;;;;1.83;1.73;;;;;;;17.98;68.09;99547.22;4881725;29;20567;-87
2021/08/24 04:57:02;;;;;;;2.00;1.83;;;;;;;17.95;68.38;99550.47;4871070;29;20319;-89
2021/08/24 04:59:28;;;;;;;2.07;1.97;;;;;;;17.87;68.60;99551.00;4850151;29;20301;-88
2021/08/24 05:01:55;;;;;;;2.17;1.97;;;;;;;17.90;68.68;99543.16;4865282;29;20283;-89
2021/08/24 05:04:23;;;;;;;1.70;1.60;;;;;;;18.05;68.12;99553.19;4880771;29;20244;-89
2021/08/24 05:06:51;;;;;;;1.83;1.73;;;;;;;18.06;67.51;99535.03;4865521;29;20299;-87
2021/08/24 05:09:18;;;;;;;2.00;1.80;;;;;;;18.23;66.93;99549.13;4866425;29;20227;-87
2021/08/24 05:11:45;;;;;;;1.53;1.43;;;;;;;18.23;67.01;99541.81;4866200;29;20283;-87
2021/08/24 05:14:12;;;;;;;3.27;1.97;;;;;;;18.21;67.00;99551.28;4881206;29;20263;-88
2021/08/24 05:16:40;;;;;;;1.70;1.60;;;;;;;18.26;66.67;99551.28;4865994;29;20648;-88
2021/08/24 05:19:07;;;;;;;1.70;1.60;;;;;;;18.24;67.46;99564.31;4866383;29;20228;-86
2021/08/24 05:21:36;;;;;;;1.80;1.70;;;;;;;18.26;67.41;99562.13;4881540;29;20704;-88
2021/08/24 05:24:04;;;;;;;1.87;1.77;;;;;;;18.14;67.03;99546.16;4865566;29;20232;-88
2021/08/24 05:26:32;;;;;;;1.80;1.70;;;;;;;18.24;66.59;99556.19;4881449;29;20228;-89
2021/08/24 05:28:59;;;;;;;1.67;1.57;;;;;;;18.30;66.07;99558.59;4880875;29;20318;-88
2021/08/24 05:31:26;;;;;;;1.80;1.70;;;;;;;18.48;65.84;99568.91;4864644;29;20239;-89
2021/08/24 05:33:53;;;;;;;2.10;1.90;;;;;;;18.47;65.98;99569.19;4881447;29;20243;-88
2021/08/24 05:36:19;;;;;;;2.00;1.90;;;;;;;18.20;67.13;99564.03;4879718;29;20239;-88
2021/08/24 05:38:46;;;;;;;1.97;1.80;;;;;;;18.45;66.02;99560.50;4866098;29;20315;-86
2021/08/24 05:41:13;;;;;;;1.93;1.83;;;;;;;18.38;66.29;99576.25;4865888;29;20235;-88
2021/08/24 05:43:39;;;;;;;3.17;2.40;;;;;;;18.69;66.05;99577.88;4865825;29;20627;-88
2021/08/24 05:46:11;;;;;;;1.60;1.50;;;;;;;18.84;65.43;99568.91;4880668;29;20670;-87
2021/08/24 05:48:39;;;;;;;2.03;1.83;;;;;;;18.99;64.86;99573.47;4865637;29;20239;-87
2021/08/24 05:51:11;;;;;;;1.80;1.60;;;;;;;19.04;64.75;99571.53;4877664;29;20783;-88
2021/08/24 05:53:38;;;;;;;2.30;2.10;;;;;;;18.99;64.43;99584.34;4847074;29;20240;-86
2021/08/24 05:56:13;;;;;;;2.20;2.00;;;;;;;18.94;65.06;99579.72;4845858;29;20240;-88
2021/08/24 05:58:41;;;;;;;2.00;1.90;;;;;;;19.04;64.63;99574.25;4859986;29;20633;-85
2021/08/24 06:01:08;;;;;;;2.03;1.93;;;;;;;19.02;64.41;99573.72;4876060;29;20245;-86
2021/08/24 06:03:39;;;;;;;2.47;1.87;;;;;;;19.27;63.70;99572.84;4888088;29;20238;-86
2021/08/24 06:06:06;;;;;;;2.03;1.93;;;;;;;19.23;63.69;99580.72;4876337;29;20306;-87
2021/08/24 06:08:33;;;;;;;1.93;1.63;;;;;;;19.22;63.94;99570.13;4869936;29;20251;-87
2021/08/24 06:11:00;;;;;;;1.60;1.50;;;;;;;19.13;64.09;99580.75;4878968;29;20239;-87
2021/08/24 06:13:27;;;;;;;1.80;1.70;;;;;;;19.09;63.73;99581.56;4879574;29;20306;-87
2021/08/24 06:15:54;;;;;;;2.33;1.67;;;;;;;19.05;63.66;99583.22;4880457;29;20227;-87
2021/08/24 06:18:21;;;;;;;1.90;1.80;;;;;;;18.87;64.17;99593.59;4880023;29;20322;-86
2021/08/24 06:20:48;;;;;;;1.93;1.83;;;;;;;18.80;64.54;99582.19;4849693;29;20239;-87
2021/08/24 06:23:15;;;;;;;1.97;1.63;;;;;;;18.78;65.22;99608.78;4864782;29;20585;-86
2021/08/24 06:25:42;;;;;;;1.73;1.63;;;;;;;18.70;65.86;99600.41;4849677;29;20219;-89
2021/08/24 06:28:08;;;;;;;2.00;1.77;;;;;;;18.65;65.92;99594.97;4880132;29;20287;-89
2021/08/24 06:30:36;;;;;;;2.70;1.70;;;;;;;18.73;66.27;99608.81;4865212;29;20294;-84
2021/08/24 06:33:03;;;;;;;12.70;2.57;;;;;;;18.57;67.39;99611.81;4880212;29;20290;-87
2021/08/24 06:35:30;;;;;;;2.80;1.90;;;;;;;18.60;67.06;99609.38;4873266;29;20419;-87
2021/08/24 06:37:56;;;;;;;2.30;2.20;;;;;;;18.64;66.58;99604.19;4865035;29;20318;-87
2021/08/24 06:40:23;;;;;;;2.53;2.20;;;;;;;18.81;66.40;99613.66;4880095;29;20303;-88
2021/08/24 06:42:52;;;;;;;3.03;2.83;;;;;;;18.74;66.74;99612.34;4880669;29;20240;-87
2021/08/24 06:45:26;;;;;;;3.93;3.63;;;;;;;18.70;67.06;99612.06;4880411;29;20242;-86
2021/08/24 06:47:53;;;;;;;2.47;2.30;;;;;;;18.80;66.55;99614.75;4864440;29;20256;-87
2021/08/24 06:50:22;;;;;;;2.23;2.03;;;;;;;18.71;66.40;99618.31;4869423;29;20274;-87
2021/08/24 06:52:49;;;;;;;1.80;1.70;;;;;;;18.78;65.92;99618.84;4873308;29;20596;-85
2021/08/24 06:55:17;;;;;;;2.13;2.03;;;;;;;18.72;66.40;99615.31;4880060;29;20231;-87
2021/08/24 06:57:44;;;;;;;1.73;1.63;;;;;;;18.75;66.63;99635.69;4863848;29;20227;-87
2021/08/24 07:00:19;;;;;;;1.90;1.80;;;;;;;18.63;66.62;99630.50;4859020;29;20299;-89
2021/08/24 07:02:46;;;;;;;2.00;1.90;;;;;;;18.63;66.25;99632.41;4879888;29;20287;-88
2021/08/24 07:05:15;;;;;;;2.40;1.70;;;;;;;18.65;66.69;99630.25;4876503;29;20319;-87
2021/08/24 07:07:42;;;;;;;2.40;1.90;;;;;;;18.71;66.49;99626.47;4861808;29;20240;-88
2021/08/24 07:10:11;;;;;;;2.27;1.60;;;;;;;18.89;65.99;99644.88;4854833;29;20228;-84
2021/08/24 07:12:38;;;;;;;2.03;1.60;;;;;;;18.98;65.22;99639.72;4853023;29;20231;-87
2021/08/24 07:15:06;;;;;;;2.07;1.90;;;;;;;19.00;65.25;99646.47;4883493;29;20232;-84
2021/08/24 07:17:33;;;;;;;2.60;1.97;;;;;;;19.01;65.21;99636.44;4874079;29;20706;-87
2021/08/24 07:20:00;;;;;;;3.87;2.20;;;;;;;19.13;64.32;99648.63;4882222;29;20306;-85
2021/08/24 07:22:27;;;;;;;2.13;1.93;;;;;;;19.30;64.20;99653.75;4867715;29;20236;-88
2021/08/24 07:24:53;;;;;;;2.43;2.23;;;;;;;19.26;64.11;99648.06;4867573;29;20318;-86
2021/08/24 07:27:21;;;;;;;1.37;1.27;;;;;;;19.41;63.23;99624.66;4882921;29;20262;-86
2021/08/24 07:29:48;;;;;;;1.23;1.20;;;;;;;19.53;63.57;99636.88;4866654;29;20267;-88
2021/08/24 07:32:14;;;;;;;1.47;1.20;;;;;;;19.49;62.99;99627.66;4865063;29;20284;-87
2021/08/24 07:34:41;;;;;;;1.23;1.13;;;;;;;19.83;62.13;99626.97;4848870;29;20226;-84
2021/08/24 07:37:08;;;;;;;1.30;1.20;;;;;;;20.34;60.94;99638.38;4848872;29;20240;-88
2021/08/24 07:39:35;;;;;;;1.30;1.20;;;;;;;20.54;60.38;99633.56;4877825;29;20239;-87
2021/08/24 07:42:02;;;;;;;0.90;0.90;;;;;;;20.42;60.23;99646.72;4882140;29;20243;-85
2021/08/24 07:44:33;;;;;;;2.17;0.90;;;;;;;20.52;59.11;99638.50;4867194;29;20240;-86
2021/08/24 07:47:01;;;;;;;1.30;1.30;;;;;;;20.42;59.99;99641.28;4867747;29;20288;-86
2021/08/24 07:49:30;;;;;;;1.13;1.03;;;;;;;20.14;60.01;99622.97;4879397;29;20244;-83
2021/08/24 07:51:56;;;;;;;1.17;1.00;;;;;;;20.27;60.33;99635.09;4848966;29;20590;-86
2021/08/24 07:54:23;;;;;;;1.53;1.10;;;;;;;20.47;59.52;99638.53;4865755;29;20318;-88
2021/08/24 07:56:51;;;;;;;1.40;1.30;;;;;;;20.54;59.10;99649.88;4867006;29;20588;-83
2021/08/24 07:59:18;;;;;;;1.30;1.20;;;;;;;20.58;59.00;99641.97;4866473;29;20239;-86
2021/08/24 08:01:45;;;;;;;1.40;0.87;;;;;;;20.74;58.72;99643.47;4882325;29;20238;-86
2021/08/24 08:04:12;;;;;;;0.83;0.80;;;;;;;20.82;58.35;99636.59;4881838;29;20235;-88
2021/08/24 08:06:39;;;;;;;1.63;0.90;;;;;;;20.81;58.55;99649.38;4866852;29;20238;-86
2021/08/24 08:09:06;;;;;;;0.80;0.80;;;;;;;21.12;57.49;99643.66;4882110;29;20713;-87
2021/08/24 08:11:38;;;;;;;0.70;0.70;;;;;;;21.04;57.93;99647.84;4882130;29;20262;-86
2021/08/24 08:14:06;;;;;;;1.07;0.97;;;;;;;21.20;57.43;99643.88;4866100;29;20263;-86
2021/08/24 08:16:34;;;;;;;1.23;0.90;;;;;;;21.38;56.72;99648.56;4866954;29;20314;-87
2021/08/24 08:19:01;;;;;;;0.90;0.90;;;;;;;21.04;57.14;99648.63;4866481;29;20291;-85
2021/08/24 08:21:29;;;;;;;1.10;1.00;;;;;;;21.18;57.12;99656.16;4851104;29;20257;-87
2021/08/24 08:23:56;;;;;;;1.00;0.80;;;;;;;21.41;55.83;99650.72;4897241;29;20283;-87
2021/08/24 08:26:23;;;;;;;0.90;0.90;;;;;;;21.32;56.60;99663.34;4882041;29;20239;-85
2021/08/24 08:28:51;;;;;;;2.27;1.43;;;;;;;21.48;56.33;99662.09;4866227;29;20235;-85
2021/08/24 08:31:18;;;;;;;0.87;0.80;;;;;;;21.41;56.56;99660.81;4867009;29;20314;-85
2021/08/24 08:33:45;;;;;;;0.97;0.90;;;;;;;21.37;57.51;99663.28;4882282;29;20229;-85
2021/08/24 08:36:12;;;;;;;0.90;0.80;;;;;;;21.49;56.65;99663.72;4881889;29;20233;-83
2021/08/24 08:38:39;;;;;;;0.83;0.70;;;;;;;22.09;55.08;99646.88;4881694;29;20322;-87
2021/08/24 08:41:18;;;;;;;0.60;0.60;;;;;;;22.45;54.15;99653.41;4866741;29;20242;-84
2021/08/24 08:44:00;;;;;;;0.83;0.80;;;;;;;22.61;53.14;99646.63;4863102;29;20634;-86
2021/08/24 08:47:14;;;;;;;0.73;0.73;;;;;;;22.66;53.96;99653.91;4832460;29;20280;-86
2021/08/24 08:49:50;;;;;;;1.93;0.80;;;;;;;22.87;52.98;99657.94;4866070;29;20538;-87
2021/08/24 08:52:38;;;;;;;0.60;0.60;;;;;;;23.15;52.31;99654.16;4882640;29;20236;-85
2021/08/24 08:55:18;;;;;;;1.13;0.80;;;;;;;23.41;51.10;99650.97;4881581;29;20241;-86
2021/08/24 08:58:16;;;;;;;0.67;0.60;;;;;;;23.64;51.26;99652.69;4858934;29;20234;-85
2021/08/24 09:00:51;;;;;;;0.93;0.83;;;;;;;23.94;49.02;99654.78;4865096;29;20294;-85
2021/08/24 09:03:27;;;;;;;0.87;0.70;;;;;;;23.58;49.72;99646.53;4848020;29;20231;-86
2021/08/24 09:05:56;;;;;;;0.77;0.70;;;;;;;23.74;49.69;99655.22;4865611;29;20555;-85
2021/08/24 09:08:23;;;;;;;0.93;0.60;;;;;;;23.68;49.61;99640.03;4865377;29;20642;-86
2021/08/24 09:10:54;;;;;;;0.80;0.70;;;;;;;23.99;48.99;99651.13;4865878;29;20246;-85
2021/08/24 09:13:25;;;;;;;0.57;0.57;;;;;;;24.28;48.16;99651.59;4866075;29;20227;-86
2021/08/24 09:16:00;;;;;;;1.90;0.70;;;;;;;24.62;47.70;99644.75;4865822;29;20241;-85
2021/08/24 09:18:56;;;;;;;0.53;0.53;;;;;;;25.13;46.53;99644.28;4846834;29;20543;-84
2021/08/24 09:21:30;;;;;;;0.60;0.60;;;;;;;25.77;46.28;99642.78;4867064;29;20299;-86
2021/08/24 09:24:03;;;;;;;0.60;0.60;;;;;;;25.72;44.61;99637.44;4881155;29;20287;-84
2021/08/24 09:26:30;;;;;;;0.60;0.60;;;;;;;25.72;44.71;99634.69;4865535;29;20227;-85
2021/08/24 09:28:57;;;;;;;0.50;0.50;;;;;;;26.20;44.62;99632.66;4896504;29;20307;-84
2021/08/24 09:31:24;;;;;;;0.60;0.50;;;;;;;26.47;43.91;99639.00;4865613;29;20239;-83
2021/08/24 09:33:51;;;;;;;0.50;0.50;;;;;;;26.09;45.94;99642.34;4859367;29;20702;-85
2021/08/24 09:36:19;;;;;;;0.60;0.60;;;;;;;26.25;42.84;99632.53;4862014;29;20331;-84
2021/08/24 09:38:56;;;;;;;1.08;0.50;;;;;;;26.27;43.38;99641.25;4862316;29;20262;-86
2021/08/24 09:41:28;;;;;;;0.50;0.50;;;;;;;25.58;44.03;99632.06;4846952;29;20247;-85
2021/08/24 09:44:24;;;;;;;0.50;0.50;;;;;;;25.35;45.07;99638.75;4849255;29;20233;-84
2021/08/24 09:46:53;;;;;;;0.50;0.50;;;;;;;25.29;45.75;99642.78;4846948;29;20240;-85
2021/08/24 09:49:20;;;;;;;1.10;0.45;;;;;;;25.06;45.73;99642.00;4861793;29;20253;-85
2021/08/24 09:52:03;;;;;;;0.50;0.50;;;;;;;24.64;46.26;99640.59;4846421;29;20249;-85
2021/08/24 09:54:31;;;;;;;0.50;0.50;;;;;;;24.79;47.00;99636.66;4861931;29;20255;-83
2021/08/24 09:57:05;;;;;;;0.67;0.50;;;;;;;25.00;45.77;99632.31;4862073;29;20240;-86
2021/08/24 09:59:41;;;;;;;0.50;0.50;;;;;;;24.84;46.29;99636.53;4846621;29;20255;-84
2021/08/24 10:02:40;;;;;;;0.60;0.60;;;;;;;25.50;45.46;99640.25;4861422;29;20240;-86
2021/08/24 10:05:27;;;;;;;0.47;0.47;;;;;;;25.25;44.77;99628.06;4861889;29;20229;-84
2021/08/24 10:07:57;;;;;;;0.90;0.60;;;;;;;25.26;45.85;99625.00;4849436;29;20228;-84
2021/08/24 10:10:36;;;;;;;1.53;0.60;;;;;;;25.32;45.02;99629.22;4861414;29;20250;-84
2021/08/24 10:13:25;;;;;;;1.48;0.70;;;;;;;25.17;46.04;99631.56;4846535;29;20244;-85
2021/08/24 10:16:03;;;;;;;0.70;0.70;;;;;;;25.37;45.81;99636.50;4846499;29;20244;-84
2021/08/24 10:18:30;;;;;;;0.68;0.57;;;;;;;25.55;45.05;99629.97;4861353;29;20232;-84
2021/08/24 10:21:05;;;;;;;0.88;0.65;;;;;;;25.50;45.12;99629.28;4861495;29;20232;-84
2021/08/24 10:23:37;;;;;;;0.77;0.77;;;;;;;25.27;45.48;99632.13;4861701;29;20296;-84
2021/08/24 10:26:07;;;;;;;0.70;0.70;;;;;;;25.17;45.93;99626.91;4846080;29;20264;-87
2021/08/24 10:28:39;;;;;;;1.75;0.70;;;;;;;24.73;46.73;99626.97;4861726;29;20307;-85
2021/08/24 10:31:37;;;;;;;0.60;0.60;;;;;;;24.71;47.36;99638.22;4861614;29;20265;-87
2021/08/24 10:34:09;;;;;;;0.43;0.43;;;;;;;24.40;47.48;99629.94;4846003;29;20554;-82
2021/08/24 10:36:41;;;;;;;0.50;0.50;;;;;;;24.33;47.92;99628.75;4861859;29;20517;-83
2021/08/24 10:39:21;;;;;;;1.63;0.60;;;;;;;24.31;48.17;99631.78;4846479;29;20250;-85
2021/08/24 10:42:25;;;;;;;0.60;0.60;;;;;;;24.78;47.67;99630.38;4877017;29;20667;-85
2021/08/24 10:44:53;;;;;;;0.67;0.60;;;;;;;25.34;46.20;99623.41;4850267;29;20241;-83
2021/08/24 10:47:22;;;;;;;0.50;0.50;;;;;;;25.62;44.80;99626.75;4850285;29;20260;-86
2021/08/24 10:49:51;;;;;;;0.80;0.60;;;;;;;25.67;43.86;99626.59;4849948;29;20234;-83
2021/08/24 10:53:01;;;;;;;0.50;0.50;;;;;;;25.81;44.33;99619.06;4849459;29;20322;-85
2021/08/24 10:55:30;;;;;;;0.70;0.70;;;;;;;25.68;44.69;99618.06;4794356;29;20303;-85
2021/08/24 10:58:18;;;;;;;0.50;0.50;;;;;;;24.53;48.56;99636.50;4855693;29;20246;-82
2021/08/24 11:00:48;;;;;;;0.80;0.80;;;;;;;23.02;60.01;99651.41;4864455;29;20241;-83
2021/08/24 11:03:57;;;;;;;2.40;1.00;;;;;;;22.80;61.75;99655.63;4870656;29;20237;-84
2021/08/24 11:07:02;;;;;;;1.00;1.00;;;;;;;22.57;60.97;99647.50;4852620;29;20232;-82
2021/08/24 11:09:59;;;;;;;0.87;0.87;;;;;;;23.00;60.44;99651.72;4883421;29;20240;-86
2021/08/24 11:12:53;;;;;;;1.33;0.90;;;;;;;23.52;57.79;99660.59;4881457;29;20574;-84
2021/08/24 11:15:38;;;;;;;1.33;0.60;;;;;;;23.50;54.03;99660.91;4883166;29;20247;-87
2021/08/24 11:18:21;;;;;;;0.43;0.43;;;;;;;23.75;52.31;99659.56;4882855;29;20245;-86
2021/08/24 11:21:02;;;;;;;0.40;0.40;;;;;;;24.35;51.66;99660.19;4898840;29;20588;-84
2021/08/24 11:23:43;;;;;;;2.53;0.60;;;;;;;24.59;51.38;99659.88;4883206;29;20715;-84
2021/08/24 11:26:20;;;;;;;0.50;0.50;;;;;;;24.07;51.18;99653.16;4882662;29;20650;-83
2021/08/24 11:28:56;;;;;;;0.93;0.30;;;;;;;24.88;48.50;99651.25;4898884;29;20236;-83
2021/08/24 11:31:39;;;;;;;1.23;0.50;;;;;;;25.28;47.63;99650.19;4883023;29;20290;-84
2021/08/24 11:34:15;;;;;;;0.37;0.37;;;;;;;25.09;47.49;99654.28;4883702;29;20227;-84
2021/08/24 11:36:52;;;;;;;1.37;0.40;;;;;;;24.72;49.20;99641.78;4882940;29;20579;-85
2021/08/24 11:39:20;;;;;;;0.97;0.50;;;;;;;24.56;49.25;99652.28;4867463;29;20290;-84
2021/08/24 11:41:49;;;;;;;0.67;0.50;;;;;;;24.03;50.56;99650.19;4867494;29;20887;-85
2021/08/24 11:44:20;;;;;;;0.43;0.43;;;;;;;23.73;52.59;99650.88;4866862;29;20532;-85
2021/08/24 11:46:55;;;;;;;0.60;0.50;;;;;;;23.54;52.40;99650.97;4882561;29;20238;-83
2021/08/24 11:49:40;;;;;;;1.37;0.70;;;;;;;23.42;53.91;99653.41;4867038;29;20302;-87
2021/08/24 11:52:25;;;;;;;1.70;0.80;;;;;;;23.29;54.52;99659.63;4883044;29;20288;-85
2021/08/24 11:55:06;;;;;;;1.00;0.70;;;;;;;23.58;52.48;99640.25;4882648;29;20287;-87
2021/08/24 11:57:45;;;;;;;0.80;0.80;;;;;;;24.39;52.25;99643.97;4881504;29;20317;-85